<?xml version="1.0" encoding="UTF-8"?>
<gpx creator="Garmin Connect" version="1.1"
  xsi:schemaLocation="http://www.topografix.com/GPX/1/1 http://www.topografix.com/GPX/11.xsd"
  xmlns:ns3="http://www.garmin.com/xmlschemas/TrackPointExtension/v1"
  xmlns="http://www.topografix.com/GPX/1/1"
  xmlns:xsi="http://www.w3.org/2001/XMLSchema-instance" xmlns:ns2="http://www.garmin.com/xmlschemas/GpxExtensions/v3">
  <metadata>
    <link href="connect.garmin.com">
      <text>Garmin Connect</text>
    </link>
    <time>2023-07-02T07:54:30.000Z</time>
  </metadata>
  <trk>
    <name>Aalen Laufen</name>
    <type>running</type>
    <trkseg>
      <trkpt lat="48.88079241849482059478759765625" lon="10.13638260774314403533935546875">
        <ele>484</ele>
        <time>2023-07-02T07:54:30.000Z</time>
        <extensions>
          <ns3:TrackPointExtension>
            <ns3:hr>107</ns3:hr>
            <ns3:cad>0</ns3:cad>
          </ns3:TrackPointExtension>
        </extensions>
      </trkpt>
      <trkpt lat="48.8807930052280426025390625" lon="10.13639065437018871307373046875">
        <ele>484</ele>
        <time>2023-07-02T07:54:31.000Z</time>
        <extensions>
          <ns3:TrackPointExtension>
            <ns3:hr>107</ns3:hr>
            <ns3:cad>0</ns3:cad>
          </ns3:TrackPointExtension>
        </extensions>
      </trkpt>
      <trkpt lat="48.8807157240808010101318359375" lon="10.1365890540182590484619140625">
        <ele>484</ele>
        <time>2023-07-02T07:54:38.000Z</time>
        <extensions>
          <ns3:TrackPointExtension>
            <ns3:hr>101</ns3:hr>
            <ns3:cad>84</ns3:cad>
          </ns3:TrackPointExtension>
        </extensions>
      </trkpt>
      <trkpt lat="48.88066501356661319732666015625" lon="10.1367214880883693695068359375">
        <ele>484.600006103515625</ele>
        <time>2023-07-02T07:54:42.000Z</time>
        <extensions>
          <ns3:TrackPointExtension>
            <ns3:hr>107</ns3:hr>
            <ns3:cad>85</ns3:cad>
          </ns3:TrackPointExtension>
        </extensions>
      </trkpt>
      <trkpt lat="48.8806521892547607421875" lon="10.13675224967300891876220703125">
        <ele>484.79998779296875</ele>
        <time>2023-07-02T07:54:43.000Z</time>
        <extensions>
          <ns3:TrackPointExtension>
            <ns3:hr>112</ns3:hr>
            <ns3:cad>84</ns3:cad>
          </ns3:TrackPointExtension>
        </extensions>
      </trkpt>
      <trkpt lat="48.880637772381305694580078125" lon="10.13678125105798244476318359375">
        <ele>484.79998779296875</ele>
        <time>2023-07-02T07:54:44.000Z</time>
        <extensions>
          <ns3:TrackPointExtension>
            <ns3:hr>117</ns3:hr>
            <ns3:cad>84</ns3:cad>
          </ns3:TrackPointExtension>
        </extensions>
      </trkpt>
      <trkpt lat="48.8806240260601043701171875" lon="10.136810503900051116943359375">
        <ele>485</ele>
        <time>2023-07-02T07:54:45.000Z</time>
        <extensions>
          <ns3:TrackPointExtension>
            <ns3:hr>121</ns3:hr>
            <ns3:cad>84</ns3:cad>
          </ns3:TrackPointExtension>
        </extensions>
      </trkpt>
      <trkpt lat="48.88060265220701694488525390625" lon="10.13683254830539226531982421875">
        <ele>485</ele>
        <time>2023-07-02T07:54:46.000Z</time>
        <extensions>
          <ns3:TrackPointExtension>
            <ns3:hr>124</ns3:hr>
            <ns3:cad>84</ns3:cad>
          </ns3:TrackPointExtension>
        </extensions>
      </trkpt>
      <trkpt lat="48.88058236800134181976318359375" lon="10.13685165904462337493896484375">
        <ele>485</ele>
        <time>2023-07-02T07:54:47.000Z</time>
        <extensions>
          <ns3:TrackPointExtension>
            <ns3:hr>124</ns3:hr>
            <ns3:cad>84</ns3:cad>
          </ns3:TrackPointExtension>
        </extensions>
      </trkpt>
      <trkpt lat="48.8804201781749725341796875" lon="10.136987864971160888671875">
        <ele>485.600006103515625</ele>
        <time>2023-07-02T07:54:55.000Z</time>
        <extensions>
          <ns3:TrackPointExtension>
            <ns3:hr>128</ns3:hr>
            <ns3:cad>85</ns3:cad>
          </ns3:TrackPointExtension>
        </extensions>
      </trkpt>
      <trkpt lat="48.88033946044743061065673828125" lon="10.13705961406230926513671875">
        <ele>486</ele>
        <time>2023-07-02T07:54:59.000Z</time>
        <extensions>
          <ns3:TrackPointExtension>
            <ns3:hr>131</ns3:hr>
            <ns3:cad>85</ns3:cad>
          </ns3:TrackPointExtension>
        </extensions>
      </trkpt>
      <trkpt lat="48.8802107982337474822998046875" lon="10.13717452995479106903076171875">
        <ele>486.399993896484375</ele>
        <time>2023-07-02T07:55:06.000Z</time>
        <extensions>
          <ns3:TrackPointExtension>
            <ns3:hr>134</ns3:hr>
            <ns3:cad>84</ns3:cad>
          </ns3:TrackPointExtension>
        </extensions>
      </trkpt>
      <trkpt lat="48.88016603887081146240234375" lon="10.1371908746659755706787109375">
        <ele>486.399993896484375</ele>
        <time>2023-07-02T07:55:08.000Z</time>
        <extensions>
          <ns3:TrackPointExtension>
            <ns3:hr>137</ns3:hr>
            <ns3:cad>84</ns3:cad>
          </ns3:TrackPointExtension>
        </extensions>
      </trkpt>
      <trkpt lat="48.8801266439259052276611328125" lon="10.13720436953008174896240234375">
        <ele>486.20001220703125</ele>
        <time>2023-07-02T07:55:10.000Z</time>
        <extensions>
          <ns3:TrackPointExtension>
            <ns3:hr>140</ns3:hr>
            <ns3:cad>85</ns3:cad>
          </ns3:TrackPointExtension>
        </extensions>
      </trkpt>
      <trkpt lat="48.8799375481903553009033203125" lon="10.1372529007494449615478515625">
        <ele>486</ele>
        <time>2023-07-02T07:55:18.000Z</time>
        <extensions>
          <ns3:TrackPointExtension>
            <ns3:hr>140</ns3:hr>
            <ns3:cad>86</ns3:cad>
          </ns3:TrackPointExtension>
        </extensions>
      </trkpt>
      <trkpt lat="48.879791200160980224609375" lon="10.1373383961617946624755859375">
        <ele>486.20001220703125</ele>
        <time>2023-07-02T07:55:26.000Z</time>
        <extensions>
          <ns3:TrackPointExtension>
            <ns3:hr>143</ns3:hr>
            <ns3:cad>86</ns3:cad>
          </ns3:TrackPointExtension>
        </extensions>
      </trkpt>
      <trkpt lat="48.879609145224094390869140625" lon="10.137308724224567413330078125">
        <ele>487.20001220703125</ele>
        <time>2023-07-02T07:55:34.000Z</time>
        <extensions>
          <ns3:TrackPointExtension>
            <ns3:hr>144</ns3:hr>
            <ns3:cad>85</ns3:cad>
          </ns3:TrackPointExtension>
        </extensions>
      </trkpt>
      <trkpt lat="48.87942801229655742645263671875" lon="10.13730864040553569793701171875">
        <ele>488.600006103515625</ele>
        <time>2023-07-02T07:55:42.000Z</time>
        <extensions>
          <ns3:TrackPointExtension>
            <ns3:hr>146</ns3:hr>
            <ns3:cad>84</ns3:cad>
          </ns3:TrackPointExtension>
        </extensions>
      </trkpt>
      <trkpt lat="48.87926339171826839447021484375" lon="10.13718475587666034698486328125">
        <ele>489.399993896484375</ele>
        <time>2023-07-02T07:55:49.000Z</time>
        <extensions>
          <ns3:TrackPointExtension>
            <ns3:hr>148</ns3:hr>
            <ns3:cad>85</ns3:cad>
          </ns3:TrackPointExtension>
        </extensions>
      </trkpt>
      <trkpt lat="48.8791587017476558685302734375" lon="10.13692592270672321319580078125">
        <ele>489</ele>
        <time>2023-07-02T07:55:57.000Z</time>
        <extensions>
          <ns3:TrackPointExtension>
            <ns3:hr>151</ns3:hr>
            <ns3:cad>84</ns3:cad>
          </ns3:TrackPointExtension>
        </extensions>
      </trkpt>
      <trkpt lat="48.87910983525216579437255859375" lon="10.136652253568172454833984375">
        <ele>489.20001220703125</ele>
        <time>2023-07-02T07:56:04.000Z</time>
        <extensions>
          <ns3:TrackPointExtension>
            <ns3:hr>152</ns3:hr>
            <ns3:cad>85</ns3:cad>
          </ns3:TrackPointExtension>
        </extensions>
      </trkpt>
      <trkpt lat="48.8790587894618511199951171875" lon="10.1363838650286197662353515625">
        <ele>489.79998779296875</ele>
        <time>2023-07-02T07:56:11.000Z</time>
        <extensions>
          <ns3:TrackPointExtension>
            <ns3:hr>153</ns3:hr>
            <ns3:cad>85</ns3:cad>
          </ns3:TrackPointExtension>
        </extensions>
      </trkpt>
      <trkpt lat="48.87904093600809574127197265625" lon="10.13615311123430728912353515625">
        <ele>490</ele>
        <time>2023-07-02T07:56:18.000Z</time>
        <extensions>
          <ns3:TrackPointExtension>
            <ns3:hr>153</ns3:hr>
            <ns3:cad>82</ns3:cad>
          </ns3:TrackPointExtension>
        </extensions>
      </trkpt>
      <trkpt lat="48.87920874170958995819091796875" lon="10.13600843958556652069091796875">
        <ele>490</ele>
        <time>2023-07-02T07:56:26.000Z</time>
        <extensions>
          <ns3:TrackPointExtension>
            <ns3:hr>152</ns3:hr>
            <ns3:cad>84</ns3:cad>
          </ns3:TrackPointExtension>
        </extensions>
      </trkpt>
      <trkpt lat="48.8793602026998996734619140625" lon="10.13585505075752735137939453125">
        <ele>489.600006103515625</ele>
        <time>2023-07-02T07:56:34.000Z</time>
        <extensions>
          <ns3:TrackPointExtension>
            <ns3:hr>153</ns3:hr>
            <ns3:cad>82</ns3:cad>
          </ns3:TrackPointExtension>
        </extensions>
      </trkpt>
      <trkpt lat="48.87953479774296283721923828125" lon="10.1357688009738922119140625">
        <ele>489</ele>
        <time>2023-07-02T07:56:42.000Z</time>
        <extensions>
          <ns3:TrackPointExtension>
            <ns3:hr>152</ns3:hr>
            <ns3:cad>82</ns3:cad>
          </ns3:TrackPointExtension>
        </extensions>
      </trkpt>
      <trkpt lat="48.87968994677066802978515625" lon="10.13565103523433208465576171875">
        <ele>487.600006103515625</ele>
        <time>2023-07-02T07:56:50.000Z</time>
        <extensions>
          <ns3:TrackPointExtension>
            <ns3:hr>153</ns3:hr>
            <ns3:cad>83</ns3:cad>
          </ns3:TrackPointExtension>
        </extensions>
      </trkpt>
      <trkpt lat="48.879723139107227325439453125" lon="10.13553871773183345794677734375">
        <ele>487.399993896484375</ele>
        <time>2023-07-02T07:56:54.000Z</time>
        <extensions>
          <ns3:TrackPointExtension>
            <ns3:hr>156</ns3:hr>
            <ns3:cad>83</ns3:cad>
          </ns3:TrackPointExtension>
        </extensions>
      </trkpt>
      <trkpt lat="48.8798139989376068115234375" lon="10.1354523003101348876953125">
        <ele>487</ele>
        <time>2023-07-02T07:57:02.000Z</time>
        <extensions>
          <ns3:TrackPointExtension>
            <ns3:hr>159</ns3:hr>
            <ns3:cad>0</ns3:cad>
          </ns3:TrackPointExtension>
        </extensions>
      </trkpt>
      <trkpt lat="48.879962861537933349609375" lon="10.13527921400964260101318359375">
        <ele>487.600006103515625</ele>
        <time>2023-07-02T07:57:16.000Z</time>
        <extensions>
          <ns3:TrackPointExtension>
            <ns3:hr>156</ns3:hr>
            <ns3:cad>56</ns3:cad>
          </ns3:TrackPointExtension>
        </extensions>
      </trkpt>
      <trkpt lat="48.88002228923141956329345703125" lon="10.135228000581264495849609375">
        <ele>487.79998779296875</ele>
        <time>2023-07-02T07:57:21.000Z</time>
        <extensions>
          <ns3:TrackPointExtension>
            <ns3:hr>153</ns3:hr>
            <ns3:cad>58</ns3:cad>
          </ns3:TrackPointExtension>
        </extensions>
      </trkpt>
      <trkpt lat="48.880089260637760162353515625" lon="10.135185420513153076171875">
        <ele>488</ele>
        <time>2023-07-02T07:57:26.000Z</time>
        <extensions>
          <ns3:TrackPointExtension>
            <ns3:hr>150</ns3:hr>
            <ns3:cad>60</ns3:cad>
          </ns3:TrackPointExtension>
        </extensions>
      </trkpt>
      <trkpt lat="48.88014969415962696075439453125" lon="10.13512398116290569305419921875">
        <ele>488.20001220703125</ele>
        <time>2023-07-02T07:57:31.000Z</time>
        <extensions>
          <ns3:TrackPointExtension>
            <ns3:hr>147</ns3:hr>
            <ns3:cad>60</ns3:cad>
          </ns3:TrackPointExtension>
        </extensions>
      </trkpt>
      <trkpt lat="48.88030392117798328399658203125" lon="10.13494469225406646728515625">
        <ele>488.79998779296875</ele>
        <time>2023-07-02T07:57:38.000Z</time>
        <extensions>
          <ns3:TrackPointExtension>
            <ns3:hr>145</ns3:hr>
            <ns3:cad>86</ns3:cad>
          </ns3:TrackPointExtension>
        </extensions>
      </trkpt>
      <trkpt lat="48.88040852732956409454345703125" lon="10.1347978413105010986328125">
        <ele>488.600006103515625</ele>
        <time>2023-07-02T07:57:43.000Z</time>
        <extensions>
          <ns3:TrackPointExtension>
            <ns3:hr>149</ns3:hr>
            <ns3:cad>85</ns3:cad>
          </ns3:TrackPointExtension>
        </extensions>
      </trkpt>
      <trkpt lat="48.88043115846812725067138671875" lon="10.1347691752016544342041015625">
        <ele>488.600006103515625</ele>
        <time>2023-07-02T07:57:44.000Z</time>
        <extensions>
          <ns3:TrackPointExtension>
            <ns3:hr>152</ns3:hr>
            <ns3:cad>85</ns3:cad>
          </ns3:TrackPointExtension>
        </extensions>
      </trkpt>
      <trkpt lat="48.8805340044200420379638671875" lon="10.13457697816193103790283203125">
        <ele>488.399993896484375</ele>
        <time>2023-07-02T07:57:50.000Z</time>
        <extensions>
          <ns3:TrackPointExtension>
            <ns3:hr>149</ns3:hr>
            <ns3:cad>86</ns3:cad>
          </ns3:TrackPointExtension>
        </extensions>
      </trkpt>
      <trkpt lat="48.8805829547345638275146484375" lon="10.1344764791429042816162109375">
        <ele>488.20001220703125</ele>
        <time>2023-07-02T07:57:53.000Z</time>
        <extensions>
          <ns3:TrackPointExtension>
            <ns3:hr>152</ns3:hr>
            <ns3:cad>85</ns3:cad>
          </ns3:TrackPointExtension>
        </extensions>
      </trkpt>
      <trkpt lat="48.88069384731352329254150390625" lon="10.1342494972050189971923828125">
        <ele>488.20001220703125</ele>
        <time>2023-07-02T07:58:00.000Z</time>
        <extensions>
          <ns3:TrackPointExtension>
            <ns3:hr>149</ns3:hr>
            <ns3:cad>85</ns3:cad>
          </ns3:TrackPointExtension>
        </extensions>
      </trkpt>
      <trkpt lat="48.88079241849482059478759765625" lon="10.13407607562839984893798828125">
        <ele>488.399993896484375</ele>
        <time>2023-07-02T07:58:06.000Z</time>
        <extensions>
          <ns3:TrackPointExtension>
            <ns3:hr>152</ns3:hr>
            <ns3:cad>85</ns3:cad>
          </ns3:TrackPointExtension>
        </extensions>
      </trkpt>
      <trkpt lat="48.8809346593916416168212890625" lon="10.133900307118892669677734375">
        <ele>489</ele>
        <time>2023-07-02T07:58:13.000Z</time>
        <extensions>
          <ns3:TrackPointExtension>
            <ns3:hr>155</ns3:hr>
            <ns3:cad>85</ns3:cad>
          </ns3:TrackPointExtension>
        </extensions>
      </trkpt>
      <trkpt lat="48.881112523376941680908203125" lon="10.133810453116893768310546875">
        <ele>490.20001220703125</ele>
        <time>2023-07-02T07:58:19.000Z</time>
        <extensions>
          <ns3:TrackPointExtension>
            <ns3:hr>155</ns3:hr>
            <ns3:cad>87</ns3:cad>
          </ns3:TrackPointExtension>
        </extensions>
      </trkpt>
      <trkpt lat="48.8813021220266819000244140625" lon="10.133770219981670379638671875">
        <ele>490.600006103515625</ele>
        <time>2023-07-02T07:58:27.000Z</time>
        <extensions>
          <ns3:TrackPointExtension>
            <ns3:hr>157</ns3:hr>
            <ns3:cad>86</ns3:cad>
          </ns3:TrackPointExtension>
        </extensions>
      </trkpt>
      <trkpt lat="48.88139423914253711700439453125" lon="10.1337660290300846099853515625">
        <ele>490.20001220703125</ele>
        <time>2023-07-02T07:58:31.000Z</time>
        <extensions>
          <ns3:TrackPointExtension>
            <ns3:hr>156</ns3:hr>
            <ns3:cad>85</ns3:cad>
          </ns3:TrackPointExtension>
        </extensions>
      </trkpt>
      <trkpt lat="48.8814989291131496429443359375" lon="10.133629404008388519287109375">
        <ele>489.399993896484375</ele>
        <time>2023-07-02T07:58:36.000Z</time>
        <extensions>
          <ns3:TrackPointExtension>
            <ns3:hr>156</ns3:hr>
            <ns3:cad>85</ns3:cad>
          </ns3:TrackPointExtension>
        </extensions>
      </trkpt>
      <trkpt lat="48.88155902735888957977294921875" lon="10.133339725434780120849609375">
        <ele>488.20001220703125</ele>
        <time>2023-07-02T07:58:43.000Z</time>
        <extensions>
          <ns3:TrackPointExtension>
            <ns3:hr>154</ns3:hr>
            <ns3:cad>86</ns3:cad>
          </ns3:TrackPointExtension>
        </extensions>
      </trkpt>
      <trkpt lat="48.88160194270312786102294921875" lon="10.13323620893061161041259765625">
        <ele>487.20001220703125</ele>
        <time>2023-07-02T07:58:46.000Z</time>
        <extensions>
          <ns3:TrackPointExtension>
            <ns3:hr>154</ns3:hr>
            <ns3:cad>86</ns3:cad>
          </ns3:TrackPointExtension>
        </extensions>
      </trkpt>
      <trkpt lat="48.88169079087674617767333984375" lon="10.1330867595970630645751953125">
        <ele>486</ele>
        <time>2023-07-02T07:58:51.000Z</time>
        <extensions>
          <ns3:TrackPointExtension>
            <ns3:hr>155</ns3:hr>
            <ns3:cad>84</ns3:cad>
          </ns3:TrackPointExtension>
        </extensions>
      </trkpt>
      <trkpt lat="48.881795816123485565185546875" lon="10.1329229772090911865234375">
        <ele>484.600006103515625</ele>
        <time>2023-07-02T07:58:57.000Z</time>
        <extensions>
          <ns3:TrackPointExtension>
            <ns3:hr>159</ns3:hr>
            <ns3:cad>81</ns3:cad>
          </ns3:TrackPointExtension>
        </extensions>
      </trkpt>
      <trkpt lat="48.88189480639994144439697265625" lon="10.1327298581600189208984375">
        <ele>482.79998779296875</ele>
        <time>2023-07-02T07:59:03.000Z</time>
        <extensions>
          <ns3:TrackPointExtension>
            <ns3:hr>162</ns3:hr>
            <ns3:cad>84</ns3:cad>
          </ns3:TrackPointExtension>
        </extensions>
      </trkpt>
      <trkpt lat="48.88190268538892269134521484375" lon="10.13268602080643177032470703125">
        <ele>482.600006103515625</ele>
        <time>2023-07-02T07:59:04.000Z</time>
        <extensions>
          <ns3:TrackPointExtension>
            <ns3:hr>166</ns3:hr>
            <ns3:cad>84</ns3:cad>
          </ns3:TrackPointExtension>
        </extensions>
      </trkpt>
      <trkpt lat="48.88191458769142627716064453125" lon="10.13259868137538433074951171875">
        <ele>482</ele>
        <time>2023-07-02T07:59:06.000Z</time>
        <extensions>
          <ns3:TrackPointExtension>
            <ns3:hr>169</ns3:hr>
            <ns3:cad>84</ns3:cad>
          </ns3:TrackPointExtension>
        </extensions>
      </trkpt>
      <trkpt lat="48.8819693215191364288330078125" lon="10.132431797683238983154296875">
        <ele>480.600006103515625</ele>
        <time>2023-07-02T07:59:15.000Z</time>
        <extensions>
          <ns3:TrackPointExtension>
            <ns3:hr>166</ns3:hr>
            <ns3:cad>85</ns3:cad>
          </ns3:TrackPointExtension>
        </extensions>
      </trkpt>
      <trkpt lat="48.8819763623178005218505859375" lon="10.13243791647255420684814453125">
        <ele>480.600006103515625</ele>
        <time>2023-07-02T07:59:16.000Z</time>
        <extensions>
          <ns3:TrackPointExtension>
            <ns3:hr>165</ns3:hr>
            <ns3:cad>85</ns3:cad>
          </ns3:TrackPointExtension>
        </extensions>
      </trkpt>
    </trkseg>
  </trk>
</gpx>
